Radiosonde details



Informationen :

Serial : D26002253
Type : Graw DFM
Frequency : 403.210MHz
Launchsite : Elko, Nv.
Nearest town : Jackpot, US (22.9km)

Altitude (Max) : 34997m at 2026-09-05 00:40:22
Speed (Max) : 174km/h at altitude 11004m

Average speed : 77km/h
Average ascent rate : 5m/s
Average descent rate : -7m/s
Ascent rate (Max) : 10.1m/s
Descent rate (Max): -35.8m/s

First frame :
KE7DJD at 2026-09-04 23:03:55 at altitude 6083m (OG: 4400m)
Last frame :
KE7DJD at 2026-09-05 01:40:39 at altitude 8768m (OG: 6963m)

Flighttime : 2h36m44s
Ascent time : 1h36m27s
Descent time : 1h0m17s
Uptime : -
Killtimer : -

Distance (Straight line distance): 167km

Distance (Route):


Frames : 437


Measurement :

Temperature : -24.4°C
Humidity : 0%
Pressure : 0hPa


Vertical profile (SkewT) :


Elevation profile :



Receiving stations :


Receiver Frames First received Last received
KE7DJD 437 2026-09-04 23:03:55 2026-09-05 01:40:39

Share per receiver :



All frames :


Receiver Date Latitude Longitude Direction Speed Altitude Climb Temperature Humidity Pressure Voltage Killtimer Uptime BKT XDATA
KE7DJD2026-09-05 01:40:3942.12392-114.4715842°133km/h8768m-3.4m/s-24.4°C0%0hPa0V00:00:0000:00:0000:00:00
KE7DJD2026-09-05 01:40:1842.11861-114.4782945°141km/h8839m-3.4m/s-24.9°C0%0hPa0V00:00:0000:00:0000:00:00
KE7DJD2026-09-05 01:39:5742.11348-114.4851246°150km/h8907m-3.8m/s-25.5°C0%0hPa0V00:00:0000:00:0000:00:00
KE7DJD2026-09-05 01:39:3742.10757-114.4921942°148km/h8978m-3.1m/s-26.1°C0%0hPa0V00:00:0000:00:0000:00:00
KE7DJD2026-09-05 01:39:1542.10203-114.4990148°141km/h9050m-3.8m/s-26.6°C0%0hPa0V00:00:0000:00:0000:00:00
KE7DJD2026-09-05 01:38:5542.09646-114.5065343°148km/h9122m-3.8m/s-26.8°C0%0hPa0V00:00:0000:00:0000:00:00
KE7DJD2026-09-05 01:38:3442.09116-114.5131848°144km/h9191m-3.6m/s-27.1°C0%0hPa0V00:00:0000:00:0000:00:00
KE7DJD2026-09-05 01:38:1442.08546-114.5206744°148km/h9262m-3.6m/s-27.6°C0%0hPa0V00:00:0000:00:0000:00:00
KE7DJD2026-09-05 01:37:5342.08006-114.5272845°139km/h9331m-3.9m/s-28.0°C0%0hPa0V00:00:0000:00:0000:00:00
KE7DJD2026-09-05 01:37:3342.07453-114.5347144°150km/h9403m-3.7m/s-28.6°C0%0hPa0V00:00:0000:00:0000:00:00
KE7DJD2026-09-05 01:37:1242.06868-114.5419541°146km/h9477m-3.7m/s-29.0°C0%0hPa0V00:00:0000:00:0000:00:00
KE7DJD2026-09-05 01:36:5142.06337-114.5487345°150km/h9546m-3.2m/s-29.4°C0%0hPa0V00:00:0000:00:0000:00:00
KE7DJD2026-09-05 01:36:3142.05767-114.5557046°139km/h9618m-3.4m/s-29.9°C0%0hPa0V00:00:0000:00:0000:00:00
KE7DJD2026-09-05 01:36:1042.05251-114.5628946°153km/h9686m-3.5m/s-30.5°C0%0hPa0V00:00:0000:00:0000:00:00
KE7DJD2026-09-05 01:35:5042.04677-114.5703347°150km/h9759m-3.1m/s-31.1°C0%0hPa0V00:00:0000:00:0000:00:00
KE7DJD2026-09-05 01:35:2942.04114-114.5773544°142km/h9826m-3.5m/s-31.6°C0%0hPa0V00:00:0000:00:0000:00:00
KE7DJD2026-09-05 01:35:0942.03559-114.5850447°157km/h9894m-3.1m/s-32.1°C0%0hPa0V00:00:0000:00:0000:00:00
KE7DJD2026-09-05 01:34:4842.02974-114.5920442°144km/h9957m-3.3m/s-32.6°C0%0hPa0V00:00:0000:00:0000:00:00
KE7DJD2026-09-05 01:34:2742.02388-114.5995345°155km/h10021m-3.4m/s-33.1°C0%0hPa0V00:00:0000:00:0000:00:00
KE7DJD2026-09-05 01:34:0742.01800-114.6066741°157km/h10081m-2.9m/s-33.6°C0%0hPa0V00:00:0000:00:0000:00:00
KE7DJD2026-09-05 01:33:4742.01208-114.6138442°159km/h10142m-2.7m/s-34.2°C0%0hPa0V00:00:0000:00:0000:00:00
KE7DJD2026-09-05 01:33:2642.00640-114.6204946°153km/h10201m-3.2m/s-34.6°C0%0hPa0V00:00:0000:00:0000:00:00
KE7DJD2026-09-05 01:33:0642.00042-114.6277046°153km/h10261m-3.3m/s-35.0°C0%0hPa0V00:00:0000:00:0000:00:00
KE7DJD2026-09-05 01:32:4541.99412-114.6351641°148km/h10321m-3.1m/s-35.3°C0%0hPa0V00:00:0000:00:0000:00:00
KE7DJD2026-09-05 01:32:2541.98823-114.6424543°168km/h10379m-2.8m/s-35.5°C0%0hPa0V00:00:0000:00:0000:00:00
KE7DJD2026-09-05 01:32:0441.98179-114.6498745°161km/h10442m-3.2m/s-35.7°C0%0hPa0V00:00:0000:00:0000:00:00
KE7DJD2026-09-05 01:31:4341.97546-114.6572040°155km/h10502m-3.1m/s-35.9°C0%0hPa0V00:00:0000:00:0000:00:00
KE7DJD2026-09-05 01:31:2241.96899-114.6647839°161km/h10568m-3.3m/s-36.4°C0%0hPa0V00:00:0000:00:0000:00:00
KE7DJD2026-09-05 01:31:0241.96277-114.6722339°164km/h10636m-3.2m/s-36.9°C0%0hPa0V00:00:0000:00:0000:00:00
KE7DJD2026-09-05 01:30:4241.95625-114.6789441°166km/h10704m-3.5m/s-37.4°C0%0hPa0V00:00:0000:00:0000:00:00
KE7DJD2026-09-05 01:30:2141.94979-114.6855542°157km/h10775m-3.8m/s-37.9°C0%0hPa0V00:00:0000:00:0000:00:00
KE7DJD2026-09-05 01:30:0141.94308-114.6928641°155km/h10852m-3.8m/s-38.2°C0%0hPa0V00:00:0000:00:0000:00:00
KE7DJD2026-09-05 01:29:4041.93668-114.7000838°162km/h10926m-4.1m/s-38.6°C0%0hPa0V00:00:0000:00:0000:00:00
KE7DJD2026-09-05 01:29:2041.93018-114.7075240°172km/h11004m-3.7m/s-39.3°C0%0hPa0V00:00:0000:00:0000:00:00
KE7DJD2026-09-05 01:28:5941.92396-114.7144942°170km/h11079m-4.0m/s-39.8°C0%0hPa0V00:00:0000:00:0000:00:00
KE7DJD2026-09-05 01:28:3941.91741-114.7217444°162km/h11156m-3.8m/s-40.3°C0%0hPa0V00:00:0000:00:0000:00:00
KE7DJD2026-09-05 01:28:1841.91104-114.7287839°153km/h11226m-3.5m/s-40.5°C0%0hPa0V00:00:0000:00:0000:00:00
KE7DJD2026-09-05 01:27:5841.90474-114.7361440°164km/h11297m-3.3m/s-40.9°C0%0hPa0V00:00:0000:00:0000:00:00
KE7DJD2026-09-05 01:27:3741.89864-114.7428044°161km/h11363m-3.3m/s-41.3°C0%0hPa0V00:00:0000:00:0000:00:00
KE7DJD2026-09-05 01:27:1741.89230-114.7498242°159km/h11432m-3.3m/s-41.6°C0%0hPa0V00:00:0000:00:0000:00:00
KE7DJD2026-09-05 01:26:5541.88597-114.7565343°151km/h11499m-3.5m/s-41.9°C0%0hPa0V00:00:0000:00:0000:00:00
KE7DJD2026-09-05 01:26:3541.88002-114.7629344°148km/h11564m-3.5m/s-42.3°C0%0hPa0V00:00:0000:00:0000:00:00
KE7DJD2026-09-05 01:26:1441.87379-114.7696542°142km/h11632m-3.6m/s-42.8°C0%0hPa0V00:00:0000:00:0000:00:00
KE7DJD2026-09-05 01:25:5441.86793-114.7761541°141km/h11699m-3.8m/s-43.1°C0%0hPa0V00:00:0000:00:0000:00:00
KE7DJD2026-09-05 01:25:3441.86203-114.7830841°141km/h11770m-3.6m/s-43.6°C0%0hPa0V00:00:0000:00:0000:00:00
KE7DJD2026-09-05 01:25:1341.85650-114.7897739°148km/h11842m-3.6m/s-43.9°C0%0hPa0V00:00:0000:00:0000:00:00
KE7DJD2026-09-05 01:24:5341.85080-114.7964743°155km/h11919m-3.8m/s-44.1°C0%0hPa0V00:00:0000:00:0000:00:00
KE7DJD2026-09-05 01:24:3241.84537-114.8028246°148km/h11996m-3.7m/s-44.5°C0%0hPa0V00:00:0000:00:0000:00:00
KE7DJD2026-09-05 01:24:1241.83977-114.8096247°148km/h12078m-3.8m/s-44.7°C0%0hPa0V00:00:0000:00:0000:00:00
KE7DJD2026-09-05 01:23:5141.83415-114.8164948°144km/h12160m-3.9m/s-45.2°C0%0hPa0V00:00:0000:00:0000:00:00
KE7DJD2026-09-05 01:23:3141.82892-114.8229949°139km/h12235m-3.6m/s-45.6°C0%0hPa0V00:00:0000:00:0000:00:00
KE7DJD2026-09-05 01:23:1041.82374-114.8295847°131km/h12306m-3.3m/s-46.2°C0%0hPa0V00:00:0000:00:0000:00:00
KE7DJD2026-09-05 01:22:5041.81840-114.8364046°130km/h12377m-3.0m/s-46.6°C0%0hPa0V00:00:0000:00:0000:00:00
KE7DJD2026-09-05 01:21:4841.80286-114.8560042°133km/h12559m-3.2m/s-47.3°C0%0hPa0V00:00:0000:00:0000:00:00
KE7DJD2026-09-05 01:21:2841.79773-114.8626240°139km/h12622m-3.2m/s-47.1°C0%0hPa0V00:00:0000:00:0000:00:00
KE7DJD2026-09-05 01:21:0641.79249-114.8690042°146km/h12693m-3.6m/s-45.9°C0%0hPa0V00:00:0000:00:0000:00:00
KE7DJD2026-09-05 01:20:4541.78721-114.8756141°139km/h12775m-4.1m/s-45.8°C0%0hPa0V00:00:0000:00:0000:00:00
KE7DJD2026-09-05 01:20:2541.78252-114.8821653°135km/h12866m-4.8m/s-46.0°C0%0hPa0V00:00:0000:00:0000:00:00
KE7DJD2026-09-05 01:20:0441.77811-114.8889756°126km/h12964m-5.0m/s-46.5°C0%0hPa0V00:00:0000:00:0000:00:00
KE7DJD2026-09-05 01:19:4241.77391-114.8959957°119km/h13072m-5.1m/s-47.3°C0%0hPa0V00:00:0000:00:0000:00:00
KE7DJD2026-09-05 01:19:2241.77025-114.9026659°113km/h13176m-5.2m/s-47.6°C0%0hPa0V00:00:0000:00:0000:00:00
KE7DJD2026-09-05 01:19:0241.76653-114.9096157°106km/h13286m-5.4m/s-48.4°C0%0hPa0V00:00:0000:00:0000:00:00
KE7DJD2026-09-05 01:18:4141.76310-114.9159556°100km/h13392m-5.2m/s-47.7°C0%0hPa0V00:00:0000:00:0000:00:00
KE7DJD2026-09-05 01:18:2041.75933-114.9218749°102km/h13488m-4.7m/s-47.8°C0%0hPa0V00:00:0000:00:0000:00:00
KE7DJD2026-09-05 01:18:0141.75600-114.9274647°106km/h13581m-4.3m/s-48.0°C0%0hPa0V00:00:0000:00:0000:00:00
KE7DJD2026-09-05 01:17:4041.75277-114.9333552°115km/h13672m-4.0m/s-48.2°C0%0hPa0V00:00:0000:00:0000:00:00
KE7DJD2026-09-05 01:17:1941.74944-114.9390155°119km/h13753m-3.5m/s-48.6°C0%0hPa0V00:00:0000:00:0000:00:00
KE7DJD2026-09-05 01:16:5941.74592-114.9451758°119km/h13833m-3.5m/s-49.0°C0%0hPa0V00:00:0000:00:0000:00:00
KE7DJD2026-09-05 01:16:3841.74249-114.9509358°95km/h13907m-3.6m/s-48.4°C0%0hPa0V00:00:0000:00:0000:00:00
KE7DJD2026-09-05 01:16:1841.73913-114.9567552°89km/h13986m-3.8m/s-48.6°C0%0hPa0V00:00:0000:00:0000:00:00
KE7DJD2026-09-05 01:15:5741.73579-114.9619844°93km/h14064m-4.2m/s-48.8°C0%0hPa0V00:00:0000:00:0000:00:00
KE7DJD2026-09-05 01:15:3741.73246-114.9670843°99km/h14150m-4.0m/s-49.0°C0%0hPa0V00:00:0000:00:0000:00:00
KE7DJD2026-09-05 01:15:1641.72918-114.9718641°104km/h14239m-4.1m/s-49.5°C0%0hPa0V00:00:0000:00:0000:00:00
KE7DJD2026-09-05 01:14:5641.72541-114.9762046°108km/h14330m-4.3m/s-50.0°C0%0hPa0V00:00:0000:00:0000:00:00
KE7DJD2026-09-05 01:14:3441.72145-114.9810949°111km/h14430m-4.5m/s-50.3°C0%0hPa0V00:00:0000:00:0000:00:00
KE7DJD2026-09-05 01:14:1441.71769-114.9859547°106km/h14528m-4.9m/s-50.8°C0%0hPa0V00:00:0000:00:0000:00:00
KE7DJD2026-09-05 01:13:5341.71384-114.9905849°104km/h14637m-5.5m/s-50.2°C0%0hPa0V00:00:0000:00:0000:00:00
KE7DJD2026-09-05 01:13:1341.70683-114.9990944°88km/h14854m-5.6m/s-50.8°C0%0hPa0V00:00:0000:00:0000:00:00
KE7DJD2026-09-05 01:12:5241.70317-115.0025139°73km/h14962m-5.4m/s-50.2°C0%0hPa0V00:00:0000:00:0000:00:00
KE7DJD2026-09-05 01:12:3241.69989-115.0058135°64km/h15071m-4.7m/s-49.9°C0%0hPa0V00:00:0000:00:0000:00:00
KE7DJD2026-09-05 01:12:1141.69730-115.0084428°55km/h15175m-5.2m/s-49.3°C0%0hPa0V00:00:0000:00:0000:00:00
KE7DJD2026-09-05 01:11:5141.69483-115.0108222°51km/h15285m-5.3m/s-49.7°C0%0hPa0V00:00:0000:00:0000:00:00
KE7DJD2026-09-05 01:11:3041.69256-115.0125815°51km/h15395m-5.1m/s-50.5°C0%0hPa0V00:00:0000:00:0000:00:00
KE7DJD2026-09-05 01:11:1041.69041-115.0139419°60km/h15499m-4.8m/s-50.9°C0%0hPa0V00:00:0000:00:0000:00:00
KE7DJD2026-09-05 01:10:4941.68803-115.0149618°62km/h15597m-4.6m/s-51.5°C0%0hPa0V00:00:0000:00:0000:00:00
KE7DJD2026-09-05 01:10:2941.68560-115.0161415°60km/h15698m-5.0m/s-52.3°C0%0hPa0V00:00:0000:00:0000:00:00
KE7DJD2026-09-05 01:10:0741.68302-115.0175216°60km/h15801m-5.1m/s-53.2°C0%0hPa0V00:00:0000:00:0000:00:00
KE7DJD2026-09-05 01:09:4741.68019-115.0193216°64km/h15904m-4.5m/s-54.1°C0%0hPa0V00:00:0000:00:0000:00:00
KE7DJD2026-09-05 01:09:2641.67732-115.0213020°73km/h15998m-4.5m/s-54.5°C0%0hPa0V00:00:0000:00:0000:00:00
KE7DJD2026-09-05 01:09:0641.67445-115.0233820°75km/h16089m-4.8m/s-54.7°C0%0hPa0V00:00:0000:00:0000:00:00
KE7DJD2026-09-05 01:08:4541.67133-115.0258023°69km/h16185m-4.4m/s-54.0°C0%0hPa0V00:00:0000:00:0000:00:00
KE7DJD2026-09-05 01:08:2541.66857-115.0284426°71km/h16277m-4.5m/s-54.0°C0%0hPa0V00:00:0000:00:0000:00:00
KE7DJD2026-09-05 01:08:0441.66570-115.0314330°68km/h16374m-4.9m/s-54.4°C0%0hPa0V00:00:0000:00:0000:00:00
KE7DJD2026-09-05 01:07:4441.66314-115.0344531°71km/h16471m-5.0m/s-55.0°C0%0hPa0V00:00:0000:00:0000:00:00
KE7DJD2026-09-05 01:07:2441.66043-115.0377031°73km/h16578m-4.8m/s-54.8°C0%0hPa0V00:00:0000:00:0000:00:00
KE7DJD2026-09-05 01:07:0341.65806-115.0406631°68km/h16681m-5.3m/s-53.9°C0%0hPa0V00:00:0000:00:0000:00:00
KE7DJD2026-09-05 01:06:4341.65567-115.0431524°62km/h16793m-5.4m/s-54.1°C0%0hPa0V00:00:0000:00:0000:00:00
KE7DJD2026-09-05 01:06:2241.65329-115.0452728°73km/h16899m-5.3m/s-54.2°C0%0hPa0V00:00:0000:00:0000:00:00
KE7DJD2026-09-05 01:05:4141.64672-115.0481221°78km/h17128m-5.1m/s-54.3°C0%0hPa0V00:00:0000:00:0000:00:00
KE7DJD2026-09-05 01:05:2141.64312-115.0494120°82km/h17239m-5.2m/s-55.0°C0%0hPa0V00:00:0000:00:0000:00:00
KE7DJD2026-09-05 01:05:0041.63993-115.0509831°82km/h17347m-4.8m/s-55.3°C0%0hPa0V00:00:0000:00:0000:00:00
KE7DJD2026-09-05 01:04:4041.63640-115.0531734°89km/h17457m-5.3m/s-54.9°C0%0hPa0V00:00:0000:00:0000:00:00
KE7DJD2026-09-05 01:04:1941.63249-115.0560433°93km/h17567m-5.4m/s-52.8°C0%0hPa0V00:00:0000:00:0000:00:00
KE7DJD2026-09-05 01:03:5941.62936-115.0585140°82km/h17675m-5.2m/s-51.6°C0%0hPa0V00:00:0000:00:0000:00:00
KE7DJD2026-09-05 01:03:3741.62634-115.0611627°75km/h17794m-5.6m/s-49.6°C0%0hPa0V00:00:0000:00:0000:00:00
KE7DJD2026-09-05 01:03:1741.62372-115.0627868km/h17910m-6.0m/s-47.7°C0%0hPa0V00:00:0000:00:0000:00:00
KE7DJD2026-09-05 01:02:5641.62084-115.06329345°57km/h18037m-6.2m/s-47.4°C0%0hPa0V00:00:0000:00:0000:00:00
KE7DJD2026-09-05 01:02:3641.61839-115.06345340°35km/h18172m-6.6m/s-48.2°C0%0hPa0V00:00:0000:00:0000:00:00
KE7DJD2026-09-05 01:02:1641.61656-115.0635316°16km/h18304m-6.2m/s-48.7°C0%0hPa0V00:00:0000:00:0000:00:00
KE7DJD2026-09-05 01:01:5541.61491-115.0638235°33km/h18433m-6.4m/s-49.8°C0%0hPa0V00:00:0000:00:0000:00:00
KE7DJD2026-09-05 01:01:3541.61307-115.0641930°46km/h18562m-6.2m/s-50.7°C0%0hPa0V00:00:0000:00:0000:00:00
KE7DJD2026-09-05 01:01:1441.61130-115.0647718°55km/h18683m-5.8m/s-51.2°C0%0hPa0V00:00:0000:00:0000:00:00
KE7DJD2026-09-05 01:00:3341.60730-115.0659127°38km/h18945m-6.5m/s-50.9°C0%0hPa0V00:00:0000:00:0000:00:00
KE7DJD2026-09-05 01:00:1341.60656-115.06707144°11km/h19077m-5.1m/s-49.8°C0%0hPa0V00:00:0000:00:0000:00:00
KE7DJD2026-09-05 00:59:3041.60697-115.06590227°5km/h19360m-6.8m/s-49.7°C0%0hPa0V00:00:0000:00:0000:00:00
KE7DJD2026-09-05 00:59:1041.60709-115.06480324°22km/h19510m-7.4m/s-50.7°C0%0hPa0V00:00:0000:00:0000:00:00
KE7DJD2026-09-05 00:58:4941.60680-115.06419302°22km/h19659m-7.3m/s-50.5°C0%0hPa0V00:00:0000:00:0000:00:00
KE7DJD2026-09-05 00:58:2941.60632-115.06391153°4km/h19807m-7.3m/s-49.2°C0%0hPa0V00:00:0000:00:0000:00:00
KE7DJD2026-09-05 00:58:0841.60576-115.06482103°13km/h19962m-7.3m/s-48.0°C0%0hPa0V00:00:0000:00:0000:00:00
KE7DJD2026-09-05 00:57:2641.60410-115.0662129°33km/h20277m-7.0m/s-49.9°C0%0hPa0V00:00:0000:00:0000:00:00
KE7DJD2026-09-05 00:57:0641.60311-115.0662724°35km/h20426m-7.4m/s-50.1°C0%0hPa0V00:00:0000:00:0000:00:00
KE7DJD2026-09-05 00:56:4541.60202-115.06621357°40km/h20578m-7.7m/s-49.8°C0%0hPa0V00:00:0000:00:0000:00:00
KE7DJD2026-09-05 00:56:2541.60095-115.06591303°33km/h20733m-7.6m/s-49.4°C0%0hPa0V00:00:0000:00:0000:00:00
KE7DJD2026-09-05 00:56:0441.60040-115.06532234°20km/h20887m-8.2m/s-48.7°C0%0hPa0V00:00:0000:00:0000:00:00
KE7DJD2026-09-05 00:55:4441.59990-115.06461102°7km/h21053m-7.9m/s-47.9°C0%0hPa0V00:00:0000:00:0000:00:00
KE7DJD2026-09-05 00:55:2341.59970-115.0640131°18km/h21212m-8.4m/s-48.8°C0%0hPa0V00:00:0000:00:0000:00:00
KE7DJD2026-09-05 00:55:0341.59991-115.06358292°18km/h21385m-8.2m/s-48.7°C0%0hPa0V00:00:0000:00:0000:00:00
KE7DJD2026-09-05 00:54:4241.60062-115.06236279°33km/h21562m-8.8m/s-48.5°C0%0hPa0V00:00:0000:00:0000:00:00
KE7DJD2026-09-05 00:54:2241.60006-115.06102301°40km/h21752m-9.5m/s-48.5°C0%0hPa0V00:00:0000:00:0000:00:00
KE7DJD2026-09-05 00:54:0241.59995-115.06027302°24km/h21937m-9.0m/s-47.6°C0%0hPa0V00:00:0000:00:0000:00:00
KE7DJD2026-09-05 00:53:4141.60001-115.05910312°24km/h22130m-9.5m/s-47.3°C0%0hPa0V00:00:0000:00:0000:00:00
KE7DJD2026-09-05 00:53:2041.60074-115.05795285°11km/h22318m-8.9m/s-46.7°C0%0hPa0V00:00:0000:00:0000:00:00
KE7DJD2026-09-05 00:53:0041.60171-115.05705164°15km/h22512m-9.4m/s-47.3°C0%0hPa0V00:00:0000:00:0000:00:00
KE7DJD2026-09-05 00:52:3941.60262-115.05551218°44km/h22704m-11.1m/s-47.9°C0%0hPa0V00:00:0000:00:0000:00:00
KE7DJD2026-09-05 00:52:1941.60243-115.05348357°18km/h22926m-10.7m/s-48.2°C0%0hPa0V00:00:0000:00:0000:00:00
KE7DJD2026-09-05 00:51:3741.60162-115.04992360°31km/h23362m-11.3m/s-47.6°C0%0hPa0V00:00:0000:00:0000:00:00
KE7DJD2026-09-05 00:51:1741.60097-115.04869280°51km/h23593m-11.1m/s-47.3°C0%0hPa0V00:00:0000:00:0000:00:00
KE7DJD2026-09-05 00:50:5641.59978-115.0469316°35km/h23819m-11.2m/s-47.2°C0%0hPa0V00:00:0000:00:0000:00:00
KE7DJD2026-09-05 00:50:3541.59951-115.04590262°53km/h24064m-12.4m/s-46.1°C0%0hPa0V00:00:0000:00:0000:00:00
KE7DJD2026-09-05 00:50:1441.59840-115.0439115°40km/h24313m-11.4m/s-45.6°C0%0hPa0V00:00:0000:00:0000:00:00
KE7DJD2026-09-05 00:49:5341.59707-115.04315295°44km/h24570m-12.8m/s-44.4°C0%0hPa0V00:00:0000:00:0000:00:00
KE7DJD2026-09-05 00:49:3241.59595-115.04293111°33km/h24833m-12.9m/s-43.7°C0%0hPa0V00:00:0000:00:0000:00:00
KE7DJD2026-09-05 00:49:1241.59611-115.04229332°42km/h25103m-12.9m/s-43.9°C0%0hPa0V00:00:0000:00:0000:00:00
KE7DJD2026-09-05 00:48:5141.59591-115.04284135°37km/h25358m-12.8m/s-43.9°C0%0hPa0V00:00:0000:00:0000:00:00
KE7DJD2026-09-05 00:48:3141.59623-115.04304356°27km/h25632m-14.0m/s-44.0°C0%0hPa0V00:00:0000:00:0000:00:00
KE7DJD2026-09-05 00:48:1041.59624-115.04330210°33km/h25915m-14.3m/s-43.8°C0%0hPa0V00:00:0000:00:0000:00:00
KE7DJD2026-09-05 00:47:5041.59641-115.04314131°29km/h26223m-14.6m/s-43.3°C0%0hPa0V00:00:0000:00:0000:00:00
KE7DJD2026-09-05 00:47:2941.59663-115.04232349°31km/h26524m-15.0m/s-41.8°C0%0hPa0V00:00:0000:00:0000:00:00
KE7DJD2026-09-05 00:47:0841.59715-115.04180263°47km/h26865m-17.0m/s-40.4°C0%0hPa0V00:00:0000:00:0000:00:00
KE7DJD2026-09-05 00:46:4541.59769-115.04172202°57km/h27216m-16.0m/s-41.3°C0%0hPa0V00:00:0000:00:0000:00:00
KE7DJD2026-09-05 00:46:2241.59888-115.04095186°62km/h27610m-16.2m/s-42.4°C0%0hPa0V00:00:0000:00:0000:00:00
KE7DJD2026-09-05 00:46:0141.59941-115.03934113°27km/h27960m-16.8m/s-41.9°C0%0hPa0V00:00:0000:00:0000:00:00
KE7DJD2026-09-05 00:45:4041.59984-115.03807325°42km/h28328m-18.1m/s-39.5°C0%0hPa0V00:00:0000:00:0000:00:00
KE7DJD2026-09-05 00:45:2141.59962-115.03732185°35km/h28664m-18.2m/s-38.5°C0%0hPa0V00:00:0000:00:0000:00:00
KE7DJD2026-09-05 00:45:0041.59883-115.0358536°62km/h29046m-17.5m/s-36.3°C0%0hPa0V00:00:0000:00:0000:00:00
KE7DJD2026-09-05 00:44:3941.59856-115.03653260°40km/h29415m-21.0m/s-35.6°C0%0hPa0V00:00:0000:00:0000:00:00
KE7DJD2026-09-05 00:44:1841.59830-115.03634164°51km/h29828m-18.7m/s-36.3°C0%0hPa0V00:00:0000:00:0000:00:00
KE7DJD2026-09-05 00:43:5841.59853-115.0361781°37km/h30238m-22.9m/s-36.9°C0%0hPa0V00:00:0000:00:0000:00:00
KE7DJD2026-09-05 00:43:3841.59899-115.03477330°60km/h30672m-21.0m/s-36.8°C0%0hPa0V00:00:0000:00:0000:00:00
KE7DJD2026-09-05 00:43:1741.59855-115.03529224°40km/h31084m-21.0m/s-36.9°C0%0hPa0V00:00:0000:00:0000:00:00
KE7DJD2026-09-05 00:42:5541.59805-115.03537223°49km/h31584m-21.3m/s-36.3°C0%0hPa0V00:00:0000:00:0000:00:00
KE7DJD2026-09-05 00:42:3341.59769-115.03570150°62km/h32052m-24.0m/s-36.4°C0%0hPa0V00:00:0000:00:0000:00:00
KE7DJD2026-09-05 00:42:0741.59809-115.03620288°38km/h32697m-24.9m/s-32.8°C0%0hPa0V00:00:0000:00:0000:00:00
KE7DJD2026-09-05 00:41:4641.59813-115.03670268°51km/h33245m-26.4m/s-29.7°C0%0hPa0V00:00:0000:00:0000:00:00
KE7DJD2026-09-05 00:41:2541.59822-115.03679193°69km/h33780m-27.1m/s-29.5°C0%0hPa0V00:00:0000:00:0000:00:00
KE7DJD2026-09-05 00:41:0541.59889-115.03594198°13km/h34330m-35.8m/s-28.0°C0%0hPa0V00:00:0000:00:0000:00:00
KE7DJD2026-09-05 00:40:4441.59961-115.03524291°33km/h34984m-31.8m/s-27.3°C0%0hPa0V00:00:0000:00:0000:00:00
KE7DJD2026-09-05 00:40:2241.60011-115.0349834°51km/h34997m3.8m/s-28.0°C0%0hPa0V00:00:0000:00:0000:00:00
KE7DJD2026-09-05 00:39:5841.59982-115.03418184°55km/h34859m7.3m/s-29.1°C0%0hPa0V00:00:0000:00:0000:00:00
KE7DJD2026-09-05 00:39:3841.59997-115.0337368°33km/h34739m5.9m/s-28.2°C0%0hPa0V00:00:0000:00:0000:00:00
KE7DJD2026-09-05 00:39:1141.60052-115.0323345°24km/h34578m2.8m/s-28.2°C0%0hPa0V00:00:0000:00:0000:00:00
KE7DJD2026-09-05 00:38:5041.60119-115.03120261°69km/h34453m8.9m/s-28.5°C0%0hPa0V00:00:0000:00:0000:00:00
KE7DJD2026-09-05 00:38:3041.60223-115.03018219°57km/h34338m1.9m/s-29.0°C0%0hPa0V00:00:0000:00:0000:00:00
KE7DJD2026-09-05 00:38:0941.60300-115.02939179°26km/h34222m7.3m/s-29.1°C0%0hPa0V00:00:0000:00:0000:00:00
KE7DJD2026-09-05 00:37:4741.60327-115.02913284°40km/h34082m4.3m/s-29.2°C0%0hPa0V00:00:0000:00:0000:00:00
KE7DJD2026-09-05 00:37:2641.60412-115.02778190°66km/h33947m5.2m/s-29.3°C0%0hPa0V00:00:0000:00:0000:00:00
KE7DJD2026-09-05 00:37:0441.60479-115.0265716km/h33817m9.3m/s-29.5°C0%0hPa0V00:00:0000:00:0000:00:00
KE7DJD2026-09-05 00:36:4341.60515-115.02547269°37km/h33681m1.5m/s-29.9°C0%0hPa0V00:00:0000:00:0000:00:00
KE7DJD2026-09-05 00:36:0141.60643-115.0253262°38km/h33413m2.0m/s-30.1°C0%0hPa0V00:00:0000:00:0000:00:00
KE7DJD2026-09-05 00:35:3741.60585-115.02501334°16km/h33261m4.6m/s-30.2°C0%0hPa0V00:00:0000:00:0000:00:00
KE7DJD2026-09-05 00:35:1741.60551-115.02500103°5km/h33136m10.1m/s-31.3°C0%0hPa0V00:00:0000:00:0000:00:00
KE7DJD2026-09-05 00:34:5741.60595-115.0252485°27km/h33006m4.3m/s-32.3°C0%0hPa0V00:00:0000:00:0000:00:00
KE7DJD2026-09-05 00:34:3641.60635-115.02538273°13km/h32889m9.9m/s-33.0°C0%0hPa0V00:00:0000:00:0000:00:00
KE7DJD2026-09-05 00:34:1541.60707-115.02563163°7km/h32767m2.6m/s-34.6°C0%0hPa0V00:00:0000:00:0000:00:00
KE7DJD2026-09-05 00:33:5541.60758-115.02627101°38km/h32645m8.9m/s-35.2°C0%0hPa0V00:00:0000:00:0000:00:00
KE7DJD2026-09-05 00:33:3541.60805-115.02735115°13km/h32520m8.4m/s-35.6°C0%0hPa0V00:00:0000:00:0000:00:00
KE7DJD2026-09-05 00:33:1441.60814-115.02799309°22km/h32396m1.4m/s-35.5°C0%0hPa0V00:00:0000:00:0000:00:00
KE7DJD2026-09-05 00:32:5441.60789-115.0284287°33km/h32269m9.6m/s-35.8°C0%0hPa0V00:00:0000:00:0000:00:00
KE7DJD2026-09-05 00:32:3341.60794-115.0295671°35km/h32149m3.9m/s-36.5°C0%0hPa0V00:00:0000:00:0000:00:00
KE7DJD2026-09-05 00:32:1341.60805-115.03086181°13km/h32018m4.3m/s-36.7°C0%0hPa0V00:00:0000:00:0000:00:00
KE7DJD2026-09-05 00:31:5241.60812-115.0321992°24km/h31893m9.4m/s-36.6°C0%0hPa0V00:00:0000:00:0000:00:00
KE7DJD2026-09-05 00:31:3241.60807-115.03319165°11km/h31763m4.9m/s-36.2°C0%0hPa0V00:00:0000:00:0000:00:00
KE7DJD2026-09-05 00:31:1041.60758-115.03269301°51km/h31632m2.2m/s-36.1°C0%0hPa0V00:00:0000:00:0000:00:00
KE7DJD2026-09-05 00:30:5041.60710-115.0323077°31km/h31506m7.5m/s-36.9°C0%0hPa0V00:00:0000:00:0000:00:00
KE7DJD2026-09-05 00:30:3041.60707-115.0329879°18km/h31391m7.0m/s-37.5°C0%0hPa0V00:00:0000:00:0000:00:00
KE7DJD2026-09-05 00:30:0941.60685-115.0335873°15km/h31265m9.0m/s-37.2°C0%0hPa0V00:00:0000:00:0000:00:00
KE7DJD2026-09-05 00:29:4941.60639-115.03413319°7km/h31137m7.7m/s-37.8°C0%0hPa0V00:00:0000:00:0000:00:00
KE7DJD2026-09-05 00:29:2741.60592-115.0343293°26km/h31000m9.2m/s-38.6°C0%0hPa0V00:00:0000:00:0000:00:00
KE7DJD2026-09-05 00:29:0641.60529-115.03449299°26km/h30866m8.0m/s-37.8°C0%0hPa0V00:00:0000:00:0000:00:00
KE7DJD2026-09-05 00:28:4541.60488-115.03390130°11km/h30742m7.2m/s-37.1°C0%0hPa0V00:00:0000:00:0000:00:00
KE7DJD2026-09-05 00:28:2541.60451-115.03264296°64km/h30599m5.0m/s-37.7°C0%0hPa0V00:00:0000:00:0000:00:00
KE7DJD2026-09-05 00:28:0441.60468-115.03152260°24km/h30482m6.8m/s-37.7°C0%0hPa0V00:00:0000:00:0000:00:00
KE7DJD2026-09-05 00:27:4441.60508-115.03099300°15km/h30348m7.0m/s-37.7°C0%0hPa0V00:00:0000:00:0000:00:00
KE7DJD2026-09-05 00:27:2341.60505-115.0310896°27km/h30220m9.0m/s-38.0°C0%0hPa0V00:00:0000:00:0000:00:00
KE7DJD2026-09-05 00:27:0341.60484-115.0317353°18km/h30088m3.8m/s-37.0°C0%0hPa0V00:00:0000:00:0000:00:00
KE7DJD2026-09-05 00:26:4241.60484-115.03218107°31km/h29964m3.7m/s-36.7°C0%0hPa0V00:00:0000:00:0000:00:00
KE7DJD2026-09-05 00:26:2241.60448-115.03218328°40km/h29836m2.6m/s-36.2°C0%0hPa0V00:00:0000:00:0000:00:00
KE7DJD2026-09-05 00:26:0041.60405-115.03169235°13km/h29714m4.4m/s-35.5°C0%0hPa0V00:00:0000:00:0000:00:00
KE7DJD2026-09-05 00:25:3841.60353-115.03058266°11km/h29589m9.0m/s-35.7°C0%0hPa0V00:00:0000:00:0000:00:00
KE7DJD2026-09-05 00:25:1841.60312-115.03037353°35km/h29467m6.1m/s-36.5°C0%0hPa0V00:00:0000:00:0000:00:00
KE7DJD2026-09-05 00:24:5841.60255-115.03049353°2km/h29343m4.0m/s-36.9°C0%0hPa0V00:00:0000:00:0000:00:00
KE7DJD2026-09-05 00:24:3741.60171-115.0306722km/h29221m7.4m/s-36.6°C0%0hPa0V00:00:0000:00:0000:00:00
KE7DJD2026-09-05 00:24:1741.60064-115.03092334°22km/h29093m5.9m/s-37.4°C0%0hPa0V00:00:0000:00:0000:00:00
KE7DJD2026-09-05 00:23:5641.59978-115.03023295°5km/h28982m2.2m/s-37.8°C0%0hPa0V00:00:0000:00:0000:00:00
KE7DJD2026-09-05 00:23:3641.59905-115.02866281°20km/h28852m7.6m/s-38.0°C0%0hPa0V00:00:0000:00:0000:00:00
KE7DJD2026-09-05 00:23:1541.59841-115.02731322°18km/h28734m6.8m/s-38.5°C0%0hPa0V00:00:0000:00:0000:00:00
KE7DJD2026-09-05 00:22:5541.59823-115.02586262°22km/h28606m4.4m/s-38.9°C0%0hPa0V00:00:0000:00:0000:00:00
KE7DJD2026-09-05 00:22:3341.59799-115.02425234°40km/h28472m2.4m/s-38.8°C0%0hPa0V00:00:0000:00:0000:00:00
KE7DJD2026-09-05 00:22:1241.59839-115.02230208°27km/h28331m6.6m/s-38.9°C0%0hPa0V00:00:0000:00:0000:00:00
KE7DJD2026-09-05 00:21:5141.59898-115.02115190°27km/h28203m6.2m/s-40.0°C0%0hPa0V00:00:0000:00:0000:00:00
KE7DJD2026-09-05 00:21:3141.59918-115.01999238°9km/h28075m6.3m/s-40.5°C0%0hPa0V00:00:0000:00:0000:00:00
KE7DJD2026-09-05 00:21:0941.59942-115.01881306°24km/h27947m6.1m/s-41.2°C0%0hPa0V00:00:0000:00:0000:00:00
KE7DJD2026-09-05 00:20:4941.60000-115.01777232°11km/h27829m6.4m/s-41.5°C0%0hPa0V00:00:0000:00:0000:00:00
KE7DJD2026-09-05 00:20:2841.60047-115.01645209°37km/h27704m3.4m/s-41.6°C0%0hPa0V00:00:0000:00:0000:00:00
KE7DJD2026-09-05 00:20:0841.60129-115.01521207°38km/h27583m7.8m/s-41.8°C0%0hPa0V00:00:0000:00:0000:00:00
KE7DJD2026-09-05 00:19:4741.60264-115.01422193°27km/h27461m7.1m/s-41.2°C0%0hPa0V00:00:0000:00:0000:00:00
KE7DJD2026-09-05 00:19:2741.60397-115.01373254°22km/h27336m4.2m/s-41.1°C0%0hPa0V00:00:0000:00:0000:00:00
KE7DJD2026-09-05 00:19:0741.60530-115.01366186°24km/h27208m6.8m/s-40.5°C0%0hPa0V00:00:0000:00:0000:00:00
KE7DJD2026-09-05 00:18:4641.60590-115.01377176°33km/h27088m7.0m/s-40.6°C0%0hPa0V00:00:0000:00:0000:00:00
KE7DJD2026-09-05 00:18:2641.60637-115.01379134°4km/h26962m5.2m/s-40.2°C0%0hPa0V00:00:0000:00:0000:00:00
KE7DJD2026-09-05 00:18:0541.60725-115.01322223°18km/h26841m6.3m/s-40.4°C0%0hPa0V00:00:0000:00:0000:00:00
KE7DJD2026-09-05 00:17:4541.60808-115.0129051°9km/h26720m7.3m/s-41.3°C0%0hPa0V00:00:0000:00:0000:00:00
KE7DJD2026-09-05 00:17:2441.60798-115.012750km/h26604m6.5m/s-42.4°C0%0hPa0V00:00:0000:00:0000:00:00
KE7DJD2026-09-05 00:17:0441.60821-115.01239234°11km/h26481m6.4m/s-42.7°C0%0hPa0V00:00:0000:00:0000:00:00
KE7DJD2026-09-05 00:16:4341.60798-115.01198237°7km/h26370m6.1m/s-43.3°C0%0hPa0V00:00:0000:00:0000:00:00
KE7DJD2026-09-05 00:16:2341.60773-115.01153201°16km/h26251m6.0m/s-43.5°C0%0hPa0V00:00:0000:00:0000:00:00
KE7DJD2026-09-05 00:16:0241.60806-115.01118175°26km/h26133m6.4m/s-43.9°C0%0hPa0V00:00:0000:00:0000:00:00
KE7DJD2026-09-05 00:15:4041.60857-115.01160188°27km/h26017m1.9m/s-43.8°C0%0hPa0V00:00:0000:00:0000:00:00
KE7DJD2026-09-05 00:15:1841.60861-115.0113519°7km/h25891m7.0m/s-44.0°C0%0hPa0V00:00:0000:00:0000:00:00
KE7DJD2026-09-05 00:14:5741.60850-115.01139207°15km/h25773m5.0m/s-44.0°C0%0hPa0V00:00:0000:00:0000:00:00
KE7DJD2026-09-05 00:14:3741.60855-115.01148298°18km/h25653m5.2m/s-44.0°C0%0hPa0V00:00:0000:00:0000:00:00
KE7DJD2026-09-05 00:14:1641.60851-115.0123415km/h25534m3.4m/s-44.5°C0%0hPa0V00:00:0000:00:0000:00:00
KE7DJD2026-09-05 00:13:5541.60837-115.0129275°20km/h25424m4.8m/s-44.1°C0%0hPa0V00:00:0000:00:0000:00:00
KE7DJD2026-09-05 00:13:1441.60864-115.01311312°11km/h25187m5.3m/s-43.5°C0%0hPa0V00:00:0000:00:0000:00:00
KE7DJD2026-09-05 00:12:5341.60802-115.0133929°24km/h25067m6.6m/s-43.7°C0%0hPa0V00:00:0000:00:0000:00:00
KE7DJD2026-09-05 00:12:3241.60762-115.01305358°13km/h24954m6.5m/s-43.5°C0%0hPa0V00:00:0000:00:0000:00:00
KE7DJD2026-09-05 00:12:1241.60748-115.01230281°4km/h24842m4.0m/s-43.1°C0%0hPa0V00:00:0000:00:0000:00:00
KE7DJD2026-09-05 00:11:5141.60713-115.01201358°26km/h24723m6.1m/s-43.3°C0%0hPa0V00:00:0000:00:0000:00:00
KE7DJD2026-09-05 00:11:3141.60627-115.01162335°31km/h24609m5.4m/s-44.0°C0%0hPa0V00:00:0000:00:0000:00:00
KE7DJD2026-09-05 00:10:5041.60338-115.00956328°42km/h24380m4.7m/s-44.6°C0%0hPa0V00:00:0000:00:0000:00:00
KE7DJD2026-09-05 00:10:2941.60173-115.00780312°37km/h24266m6.4m/s-45.1°C0%0hPa0V00:00:0000:00:0000:00:00
KE7DJD2026-09-05 00:10:0941.60084-115.00585310°35km/h24157m5.6m/s-45.5°C0%0hPa0V00:00:0000:00:0000:00:00
KE7DJD2026-09-05 00:09:4941.60022-115.00426274°20km/h24044m6.2m/s-46.5°C0%0hPa0V00:00:0000:00:0000:00:00
KE7DJD2026-09-05 00:09:2841.59955-115.00296312°27km/h23937m6.1m/s-47.2°C0%0hPa0V00:00:0000:00:0000:00:00
KE7DJD2026-09-05 00:09:0841.59877-115.00146263°29km/h23824m5.5m/s-47.2°C0%0hPa0V00:00:0000:00:0000:00:00
KE7DJD2026-09-05 00:08:4741.59810-114.99969276°33km/h23715m4.1m/s-47.4°C0%0hPa0V00:00:0000:00:0000:00:00
KE7DJD2026-09-05 00:08:2741.59711-114.99760316°40km/h23601m5.9m/s-47.2°C0%0hPa0V00:00:0000:00:0000:00:00
KE7DJD2026-09-05 00:08:1641.59630-114.99602323°26km/h23493m7.0m/s-47.6°C0%0hPa0V00:00:0000:00:0000:00:00
KE7DJD2026-09-05 00:07:4641.59565-114.99435300°24km/h23376m5.3m/s-48.0°C0%0hPa0V00:00:0000:00:0000:00:00
KE7DJD2026-09-05 00:07:2541.59549-114.99235253°22km/h23259m7.2m/s-48.3°C0%0hPa0V00:00:0000:00:0000:00:00
KE7DJD2026-09-05 00:07:0541.59572-114.99068250°27km/h23149m6.7m/s-48.3°C0%0hPa0V00:00:0000:00:0000:00:00
KE7DJD2026-09-05 00:06:4441.59565-114.98889264°18km/h23034m4.5m/s-48.9°C0%0hPa0V00:00:0000:00:0000:00:00
KE7DJD2026-09-05 00:06:2341.59541-114.98716264°37km/h22922m4.6m/s-49.2°C0%0hPa0V00:00:0000:00:0000:00:00
KE7DJD2026-09-05 00:06:0341.59562-114.98538251°27km/h22810m6.9m/s-48.8°C0%0hPa0V00:00:0000:00:0000:00:00
KE7DJD2026-09-05 00:05:4241.59621-114.98363263°15km/h22697m2.9m/s-48.3°C0%0hPa0V00:00:0000:00:0000:00:00
KE7DJD2026-09-05 00:05:2241.59682-114.98231199°5km/h22590m5.4m/s-48.1°C0%0hPa0V00:00:0000:00:0000:00:00
KE7DJD2026-09-05 00:05:0141.59754-114.98172188°18km/h22479m4.9m/s-48.2°C0%0hPa0V00:00:0000:00:0000:00:00
KE7DJD2026-09-05 00:04:4141.59807-114.98089209°20km/h22367m6.2m/s-48.3°C0%0hPa0V00:00:0000:00:0000:00:00
KE7DJD2026-09-05 00:04:2041.59855-114.98025228°16km/h22258m4.8m/s-48.2°C0%0hPa0V00:00:0000:00:0000:00:00
KE7DJD2026-09-05 00:04:0041.59872-114.97926264°9km/h22149m4.9m/s-47.8°C0%0hPa0V00:00:0000:00:0000:00:00
KE7DJD2026-09-05 00:03:3941.59864-114.97806243°15km/h22048m5.5m/s-47.6°C0%0hPa0V00:00:0000:00:0000:00:00
KE7DJD2026-09-05 00:03:1941.59875-114.97707304°11km/h21941m5.8m/s-47.8°C0%0hPa0V00:00:0000:00:0000:00:00
KE7DJD2026-09-05 00:02:4141.59812-114.97575296°26km/h21738m6.0m/s-48.5°C0%0hPa0V00:00:0000:00:0000:00:00
KE7DJD2026-09-05 00:02:2041.59757-114.97446258°27km/h21637m5.9m/s-48.1°C0%0hPa0V00:00:0000:00:0000:00:00
KE7DJD2026-09-05 00:01:3941.59786-114.97284205°5km/h21417m5.9m/s-49.1°C0%0hPa0V00:00:0000:00:0000:00:00
KE7DJD2026-09-05 00:01:1741.59791-114.9731680°5km/h21308m6.6m/s-49.2°C0%0hPa0V00:00:0000:00:0000:00:00
KE7DJD2026-09-05 00:00:5541.59763-114.97330302°5km/h21191m6.2m/s-48.5°C0%0hPa0V00:00:0000:00:0000:00:00
KE7DJD2026-09-05 00:00:3841.59711-114.97310314°9km/h21084m4.6m/s-49.0°C0%0hPa0V00:00:0000:00:0000:00:00
KE7DJD2026-09-05 00:00:1441.59622-114.97267352°13km/h20968m4.9m/s-48.9°C0%0hPa0V00:00:0000:00:0000:00:00
KE7DJD2026-09-04 23:59:5341.59583-114.9727244°11km/h20858m4.7m/s-49.6°C0%0hPa0V00:00:0000:00:0000:00:00
KE7DJD2026-09-04 23:59:3341.59510-114.97262348°31km/h20749m5.4m/s-49.2°C0%0hPa0V00:00:0000:00:0000:00:00
KE7DJD2026-09-04 23:59:1241.59410-114.97243360°24km/h20649m5.9m/s-49.5°C0%0hPa0V00:00:0000:00:0000:00:00
KE7DJD2026-09-04 23:58:5241.59300-114.97226357°16km/h20547m5.2m/s-49.3°C0%0hPa0V00:00:0000:00:0000:00:00
KE7DJD2026-09-04 23:58:3141.59170-114.97210324°35km/h20445m3.4m/s-49.8°C0%0hPa0V00:00:0000:00:0000:00:00
KE7DJD2026-09-04 23:58:1141.59071-114.97146309°29km/h20350m4.7m/s-49.4°C0%0hPa0V00:00:0000:00:0000:00:00
KE7DJD2026-09-04 23:57:5041.58958-114.97059329°26km/h20255m5.3m/s-48.7°C0%0hPa0V00:00:0000:00:0000:00:00
KE7DJD2026-09-04 23:57:3041.58849-114.96999332°22km/h20149m6.0m/s-48.1°C0%0hPa0V00:00:0000:00:0000:00:00
KE7DJD2026-09-04 23:57:0841.58768-114.96918284°22km/h20047m3.5m/s-47.9°C0%0hPa0V00:00:0000:00:0000:00:00
KE7DJD2026-09-04 23:56:4841.58710-114.9689525°15km/h19939m4.6m/s-47.2°C0%0hPa0V00:00:0000:00:0000:00:00
KE7DJD2026-09-04 23:56:2741.58646-114.9693640°26km/h19838m6.6m/s-47.4°C0%0hPa0V00:00:0000:00:0000:00:00
KE7DJD2026-09-04 23:56:0741.58580-114.96999343°29km/h19737m6.1m/s-48.6°C0%0hPa0V00:00:0000:00:0000:00:00
KE7DJD2026-09-04 23:55:4641.58506-114.96967361°16km/h19636m5.3m/s-50.2°C0%0hPa0V00:00:0000:00:0000:00:00
KE7DJD2026-09-04 23:55:2641.58441-114.96946315°15km/h19541m4.8m/s-50.4°C0%0hPa0V00:00:0000:00:0000:00:00
KE7DJD2026-09-04 23:55:0641.58409-114.96892255°16km/h19439m4.6m/s-49.9°C0%0hPa0V00:00:0000:00:0000:00:00
KE7DJD2026-09-04 23:54:4641.58398-114.9684152°7km/h19342m5.2m/s-49.4°C0%0hPa0V00:00:0000:00:0000:00:00
KE7DJD2026-09-04 23:54:2541.58402-114.96825286°15km/h19241m5.7m/s-48.7°C0%0hPa0V00:00:0000:00:0000:00:00
KE7DJD2026-09-04 23:54:0441.58365-114.9686774°13km/h19146m6.0m/s-49.5°C0%0hPa0V00:00:0000:00:0000:00:00
KE7DJD2026-09-04 23:53:4441.58279-114.9700643°35km/h19052m5.0m/s-51.6°C0%0hPa0V00:00:0000:00:0000:00:00
KE7DJD2026-09-04 23:53:0341.58045-114.9720230°35km/h18863m5.0m/s-50.9°C0%0hPa0V00:00:0000:00:0000:00:00
KE7DJD2026-09-04 23:52:4241.57874-114.9726612°40km/h18771m5.3m/s-51.3°C0%0hPa0V00:00:0000:00:0000:00:00
KE7DJD2026-09-04 23:52:2241.57653-114.9728549km/h18675m3.4m/s-51.4°C0%0hPa0V00:00:0000:00:0000:00:00
KE7DJD2026-09-04 23:52:0141.57438-114.97260338°44km/h18580m4.2m/s-50.8°C0%0hPa0V00:00:0000:00:0000:00:00
KE7DJD2026-09-04 23:51:4141.57228-114.97190354°42km/h18482m6.1m/s-50.8°C0%0hPa0V00:00:0000:00:0000:00:00
KE7DJD2026-09-04 23:51:2041.57040-114.97103350°33km/h18379m4.4m/s-50.0°C0%0hPa0V00:00:0000:00:0000:00:00
KE7DJD2026-09-04 23:50:5941.56893-114.97042343°24km/h18279m5.7m/s-49.8°C0%0hPa0V00:00:0000:00:0000:00:00
KE7DJD2026-09-04 23:50:3941.56746-114.97001295°20km/h18173m5.9m/s-49.2°C0%0hPa0V00:00:0000:00:0000:00:00
KE7DJD2026-09-04 23:50:1841.56631-114.9698326km/h18053m5.4m/s-51.5°C0%0hPa0V00:00:0000:00:0000:00:00
KE7DJD2026-09-04 23:49:5841.56478-114.9718230°55km/h17919m6.7m/s-51.6°C0%0hPa0V00:00:0000:00:0000:00:00
KE7DJD2026-09-04 23:49:3741.56230-114.9746736°69km/h17779m6.2m/s-54.3°C0%0hPa0V00:00:0000:00:0000:00:00
KE7DJD2026-09-04 23:49:1741.55879-114.9780136°88km/h17649m6.5m/s-54.3°C0%0hPa0V00:00:0000:00:0000:00:00
KE7DJD2026-09-04 23:48:5641.55515-114.9815439°88km/h17523m5.3m/s-54.3°C0%0hPa0V00:00:0000:00:0000:00:00
KE7DJD2026-09-04 23:48:3641.55128-114.9851838°86km/h17405m6.5m/s-54.0°C0%0hPa0V00:00:0000:00:0000:00:00
KE7DJD2026-09-04 23:48:1541.54769-114.9885228°77km/h17301m9.6m/s-53.9°C0%0hPa0V00:00:0000:00:0000:00:00
KE7DJD2026-09-04 23:47:5541.54435-114.9911421°66km/h17175m5.2m/s-53.6°C0%0hPa0V00:00:0000:00:0000:00:00
KE7DJD2026-09-04 23:47:3541.54113-114.9930310°51km/h17074m5.3m/s-54.3°C0%0hPa0V00:00:0000:00:0000:00:00
KE7DJD2026-09-04 23:47:1441.53813-114.9948642°46km/h16955m5.0m/s-54.5°C0%0hPa0V00:00:0000:00:0000:00:00
KE7DJD2026-09-04 23:46:5341.53590-114.9973144°57km/h16855m5.5m/s-54.0°C0%0hPa0V00:00:0000:00:0000:00:00
KE7DJD2026-09-04 23:46:3341.53361-114.9999436°68km/h16754m3.8m/s-54.1°C0%0hPa0V00:00:0000:00:0000:00:00
KE7DJD2026-09-04 23:46:1141.53125-115.0028438°71km/h16651m5.8m/s-53.8°C0%0hPa0V00:00:0000:00:0000:00:00
KE7DJD2026-09-04 23:45:5141.52893-115.0057148°62km/h16558m4.2m/s-53.1°C0%0hPa0V00:00:0000:00:0000:00:00
KE7DJD2026-09-04 23:45:3141.52656-115.0084543°62km/h16459m4.7m/s-52.9°C0%0hPa0V00:00:0000:00:0000:00:00
KE7DJD2026-09-04 23:45:1041.52455-115.0111645°55km/h16366m5.2m/s-52.2°C0%0hPa0V00:00:0000:00:0000:00:00
KE7DJD2026-09-04 23:44:5041.52225-115.0138450°64km/h16269m5.5m/s-51.4°C0%0hPa0V00:00:0000:00:0000:00:00
KE7DJD2026-09-04 23:44:2941.52029-115.0166245°62km/h16178m4.8m/s-51.1°C0%0hPa0V00:00:0000:00:0000:00:00
KE7DJD2026-09-04 23:44:0941.51808-115.0196636°53km/h16081m4.7m/s-51.4°C0%0hPa0V00:00:0000:00:0000:00:00
KE7DJD2026-09-04 23:43:4841.51595-115.0224536°75km/h15993m4.4m/s-51.9°C0%0hPa0V00:00:0000:00:0000:00:00
KE7DJD2026-09-04 23:43:2741.51314-115.0255132°77km/h15888m4.6m/s-52.4°C0%0hPa0V00:00:0000:00:0000:00:00
KE7DJD2026-09-04 23:43:0741.51014-115.0278020°66km/h15785m5.6m/s-52.1°C0%0hPa0V00:00:0000:00:0000:00:00
KE7DJD2026-09-04 23:42:4741.50709-115.0296621°66km/h15673m4.9m/s-51.0°C0%0hPa0V00:00:0000:00:0000:00:00
KE7DJD2026-09-04 23:42:2641.50421-115.0314332°55km/h15568m4.0m/s-50.2°C0%0hPa0V00:00:0000:00:0000:00:00
KE7DJD2026-09-04 23:42:0641.50117-115.0330314°66km/h15460m5.6m/s-49.4°C0%0hPa0V00:00:0000:00:0000:00:00
KE7DJD2026-09-04 23:41:4541.49826-115.0341115°68km/h15356m4.5m/s-48.6°C0%0hPa0V00:00:0000:00:0000:00:00
KE7DJD2026-09-04 23:41:2541.49540-115.0353749km/h15247m5.3m/s-48.0°C0%0hPa0V00:00:0000:00:0000:00:00
KE7DJD2026-09-04 23:41:0441.49264-115.0368020°53km/h15137m7.4m/s-47.8°C0%0hPa0V00:00:0000:00:0000:00:00
KE7DJD2026-09-04 23:40:4341.48997-115.0391226°69km/h15028m5.0m/s-48.2°C0%0hPa0V00:00:0000:00:0000:00:00
KE7DJD2026-09-04 23:40:2341.48684-115.0427545°82km/h14920m4.5m/s-48.4°C0%0hPa0V00:00:0000:00:0000:00:00
KE7DJD2026-09-04 23:40:0241.48318-115.0467238°97km/h14814m4.5m/s-49.6°C0%0hPa0V00:00:0000:00:0000:00:00
KE7DJD2026-09-04 23:39:4241.47886-115.0514344°106km/h14685m5.7m/s-49.9°C0%0hPa0V00:00:0000:00:0000:00:00
KE7DJD2026-09-04 23:39:1941.47427-115.0571340°115km/h14563m5.7m/s-49.3°C0%0hPa0V00:00:0000:00:0000:00:00
KE7DJD2026-09-04 23:38:5841.46963-115.0622941°106km/h14450m4.3m/s-49.4°C0%0hPa0V00:00:0000:00:0000:00:00
KE7DJD2026-09-04 23:38:3841.46498-115.0670340°119km/h14347m4.3m/s-49.1°C0%0hPa0V00:00:0000:00:0000:00:00
KE7DJD2026-09-04 23:38:1841.46017-115.0722035°108km/h14246m3.5m/s-48.6°C0%0hPa0V00:00:0000:00:0000:00:00
KE7DJD2026-09-04 23:37:5741.45573-115.0767242°104km/h14158m3.1m/s-48.7°C0%0hPa0V00:00:0000:00:0000:00:00
KE7DJD2026-09-04 23:37:3741.45142-115.0814744°104km/h14067m3.4m/s-48.7°C0%0hPa0V00:00:0000:00:0000:00:00
KE7DJD2026-09-04 23:37:1641.44728-115.0867543°113km/h13983m4.7m/s-48.3°C0%0hPa0V00:00:0000:00:0000:00:00
KE7DJD2026-09-04 23:36:5641.44307-115.0921546°119km/h13904m4.4m/s-48.1°C0%0hPa0V00:00:0000:00:0000:00:00
KE7DJD2026-09-04 23:36:3541.43871-115.0977047°117km/h13825m3.0m/s-48.1°C0%0hPa0V00:00:0000:00:0000:00:00
KE7DJD2026-09-04 23:36:1541.43400-115.1034846°126km/h13741m4.6m/s-47.8°C0%0hPa0V00:00:0000:00:0000:00:00
KE7DJD2026-09-04 23:35:5441.42960-115.1090141°111km/h13656m3.5m/s-47.3°C0%0hPa0V00:00:0000:00:0000:00:00
KE7DJD2026-09-04 23:35:3441.42523-115.1149048°117km/h13563m4.0m/s-47.1°C0%0hPa0V00:00:0000:00:0000:00:00
KE7DJD2026-09-04 23:35:1441.42135-115.1204650°113km/h13472m4.5m/s-47.4°C0%0hPa0V00:00:0000:00:0000:00:00
KE7DJD2026-09-04 23:34:5341.41706-115.1265650°119km/h13369m5.5m/s-48.2°C0%0hPa0V00:00:0000:00:0000:00:00
KE7DJD2026-09-04 23:34:3141.41280-115.1333550°131km/h13262m5.6m/s-47.4°C0%0hPa0V00:00:0000:00:0000:00:00
KE7DJD2026-09-04 23:34:1141.40833-115.1399344°131km/h13153m4.9m/s-46.8°C0%0hPa0V00:00:0000:00:0000:00:00
KE7DJD2026-09-04 23:33:5141.40338-115.1465444°133km/h13043m5.4m/s-46.2°C0%0hPa0V00:00:0000:00:0000:00:00
KE7DJD2026-09-04 23:33:3041.39820-115.1526240°128km/h12945m4.4m/s-45.6°C0%0hPa0V00:00:0000:00:0000:00:00
KE7DJD2026-09-04 23:33:0941.39258-115.1589138°144km/h12851m4.7m/s-45.1°C0%0hPa0V00:00:0000:00:0000:00:00
KE7DJD2026-09-04 23:32:4941.38708-115.1648643°141km/h12771m3.2m/s-45.0°C0%0hPa0V00:00:0000:00:0000:00:00
KE7DJD2026-09-04 23:32:2941.38118-115.1712038°135km/h12697m2.9m/s-45.5°C0%0hPa0V00:00:0000:00:0000:00:00
KE7DJD2026-09-04 23:32:0841.37544-115.1770041°144km/h12639m3.5m/s-45.9°C0%0hPa0V00:00:0000:00:0000:00:00
KE7DJD2026-09-04 23:31:4841.36966-115.1834041°141km/h12583m1.6m/s-46.7°C0%0hPa0V00:00:0000:00:0000:00:00
KE7DJD2026-09-04 23:31:2741.36415-115.1898640°144km/h12532m1.2m/s-46.9°C0%0hPa0V00:00:0000:00:0000:00:00
KE7DJD2026-09-04 23:31:0741.35822-115.1964942°159km/h12480m2.3m/s-47.0°C0%0hPa0V00:00:0000:00:0000:00:00
KE7DJD2026-09-04 23:30:4641.35251-115.2029841°153km/h12430m1.9m/s-47.0°C0%0hPa0V00:00:0000:00:0000:00:00
KE7DJD2026-09-04 23:30:2641.34674-115.2098945°135km/h12372m2.5m/s-47.0°C0%0hPa0V00:00:0000:00:0000:00:00
KE7DJD2026-09-04 23:30:0541.34104-115.2170543°151km/h12306m4.3m/s-46.7°C0%0hPa0V00:00:0000:00:0000:00:00
KE7DJD2026-09-04 23:29:4541.33545-115.2238443°153km/h12230m3.7m/s-46.3°C0%0hPa0V00:00:0000:00:0000:00:00
KE7DJD2026-09-04 23:29:2541.32993-115.2307143°141km/h12150m2.4m/s-45.8°C0%0hPa0V00:00:0000:00:0000:00:00
KE7DJD2026-09-04 23:29:0441.32400-115.2378145°151km/h12060m4.9m/s-45.3°C0%0hPa0V00:00:0000:00:0000:00:00
KE7DJD2026-09-04 23:28:4341.31794-115.2447341°148km/h11962m5.6m/s-44.8°C0%0hPa0V00:00:0000:00:0000:00:00
KE7DJD2026-09-04 23:28:2241.31207-115.2518242°148km/h11860m5.4m/s-43.8°C0%0hPa0V00:00:0000:00:0000:00:00
KE7DJD2026-09-04 23:28:0241.30661-115.2587346°146km/h11763m4.3m/s-43.2°C0%0hPa0V00:00:0000:00:0000:00:00
KE7DJD2026-09-04 23:27:4141.30125-115.2659745°150km/h11666m4.3m/s-42.4°C0%0hPa0V00:00:0000:00:0000:00:00
KE7DJD2026-09-04 23:27:2141.29543-115.2734745°155km/h11570m5.1m/s-41.9°C0%0hPa0V00:00:0000:00:0000:00:00
KE7DJD2026-09-04 23:27:0041.28979-115.2805844°155km/h11479m3.6m/s-41.4°C0%0hPa0V00:00:0000:00:0000:00:00
KE7DJD2026-09-04 23:26:4041.28397-115.2879542°148km/h11388m3.6m/s-40.7°C0%0hPa0V00:00:0000:00:0000:00:00
KE7DJD2026-09-04 23:26:1941.27843-115.2949646°146km/h11303m4.2m/s-40.0°C0%0hPa0V00:00:0000:00:0000:00:00
KE7DJD2026-09-04 23:25:5941.27255-115.3025845°162km/h11219m3.6m/s-39.5°C0%0hPa0V00:00:0000:00:0000:00:00
KE7DJD2026-09-04 23:25:3841.26686-115.3096543°155km/h11142m4.0m/s-39.1°C0%0hPa0V00:00:0000:00:0000:00:00
KE7DJD2026-09-04 23:25:1841.26077-115.3170744°162km/h11063m4.1m/s-38.8°C0%0hPa0V00:00:0000:00:0000:00:00
KE7DJD2026-09-04 23:24:5741.25477-115.3239440°159km/h10992m3.1m/s-38.8°C0%0hPa0V00:00:0000:00:0000:00:00
KE7DJD2026-09-04 23:24:3741.24826-115.3312543°157km/h10919m3.0m/s-38.3°C0%0hPa0V00:00:0000:00:0000:00:00
KE7DJD2026-09-04 23:24:1741.24202-115.3380040°164km/h10854m2.7m/s-37.8°C0%0hPa0V00:00:0000:00:0000:00:00
KE7DJD2026-09-04 23:23:5641.23550-115.3452339°157km/h10780m3.5m/s-37.5°C0%0hPa0V00:00:0000:00:0000:00:00
KE7DJD2026-09-04 23:23:3441.22912-115.3524939°157km/h10706m3.5m/s-36.9°C0%0hPa0V00:00:0000:00:0000:00:00
KE7DJD2026-09-04 23:23:1441.22308-115.3595042°164km/h10630m3.3m/s-36.5°C0%0hPa0V00:00:0000:00:0000:00:00
KE7DJD2026-09-04 23:22:5341.21679-115.3669942°159km/h10548m4.5m/s-35.7°C0%0hPa0V00:00:0000:00:0000:00:00
KE7DJD2026-09-04 23:22:3341.21077-115.3740045°161km/h10469m3.8m/s-35.1°C0%0hPa0V00:00:0000:00:0000:00:00
KE7DJD2026-09-04 23:22:1341.20436-115.3815544°159km/h10385m3.0m/s-34.5°C0%0hPa0V00:00:0000:00:0000:00:00
KE7DJD2026-09-04 23:21:5241.19832-115.3886343°162km/h10303m4.5m/s-33.9°C0%0hPa0V00:00:0000:00:0000:00:00
KE7DJD2026-09-04 23:21:3241.19202-115.3962842°162km/h10218m4.2m/s-33.5°C0%0hPa0V00:00:0000:00:0000:00:00
KE7DJD2026-09-04 23:21:1141.18599-115.4036644°159km/h10135m4.6m/s-32.6°C0%0hPa0V00:00:0000:00:0000:00:00
KE7DJD2026-09-04 23:20:5141.17977-115.4113945°164km/h10048m3.1m/s-32.0°C0%0hPa0V00:00:0000:00:0000:00:00
KE7DJD2026-09-04 23:20:3041.17386-115.4187644°161km/h9970m3.8m/s-31.3°C0%0hPa0V00:00:0000:00:0000:00:00
KE7DJD2026-09-04 23:20:1041.16762-115.4265745°155km/h9889m3.7m/s-30.6°C0%0hPa0V00:00:0000:00:0000:00:00
KE7DJD2026-09-04 23:19:4941.16170-115.4339645°161km/h9811m4.0m/s-30.0°C0%0hPa0V00:00:0000:00:0000:00:00
KE7DJD2026-09-04 23:19:2941.15552-115.4414043°159km/h9730m4.1m/s-29.8°C0%0hPa0V00:00:0000:00:0000:00:00
KE7DJD2026-09-04 23:19:0841.14963-115.4485045°153km/h9655m4.4m/s-29.6°C0%0hPa0V00:00:0000:00:0000:00:00
KE7DJD2026-09-04 23:18:4841.14370-115.4555346°148km/h9574m3.5m/s-29.0°C0%0hPa0V00:00:0000:00:0000:00:00
KE7DJD2026-09-04 23:18:2741.13791-115.4627747°146km/h9495m4.8m/s-28.5°C0%0hPa0V00:00:0000:00:0000:00:00
KE7DJD2026-09-04 23:18:0641.13226-115.4700045°141km/h9417m3.6m/s-27.8°C0%0hPa0V00:00:0000:00:0000:00:00
KE7DJD2026-09-04 23:17:4641.12682-115.4767745°146km/h9337m5.3m/s-27.2°C0%0hPa0V00:00:0000:00:0000:00:00
KE7DJD2026-09-04 23:17:2541.12129-115.4833941°151km/h9261m4.4m/s-26.6°C0%0hPa0V00:00:0000:00:0000:00:00
KE7DJD2026-09-04 23:17:0541.11538-115.4902643°141km/h9180m4.1m/s-26.1°C0%0hPa0V00:00:0000:00:0000:00:00
KE7DJD2026-09-04 23:16:4441.10988-115.4967445°139km/h9097m3.3m/s-25.7°C0%0hPa0V00:00:0000:00:0000:00:00
KE7DJD2026-09-04 23:16:2441.10406-115.5033742°150km/h9010m3.2m/s-25.3°C0%0hPa0V00:00:0000:00:0000:00:00
KE7DJD2026-09-04 23:16:0341.09839-115.5097743°141km/h8924m3.1m/s-24.8°C0%0hPa0V00:00:0000:00:0000:00:00
KE7DJD2026-09-04 23:15:4341.09262-115.5164243°148km/h8836m4.4m/s-24.1°C0%0hPa0V00:00:0000:00:0000:00:00
KE7DJD2026-09-04 23:15:2241.08716-115.5226443°139km/h8751m5.0m/s-23.6°C0%0hPa0V00:00:0000:00:0000:00:00
KE7DJD2026-09-04 23:14:4141.07574-115.5357241°144km/h8573m3.8m/s-22.7°C0%0hPa0V00:00:0000:00:0000:00:00
KE7DJD2026-09-04 23:14:2141.07030-115.5417641°144km/h8486m5.3m/s-22.0°C0%0hPa0V00:00:0000:00:0000:00:00
KE7DJD2026-09-04 23:14:0041.06490-115.5478140°137km/h8398m4.8m/s-21.2°C0%0hPa0V00:00:0000:00:0000:00:00
KE7DJD2026-09-04 23:13:4041.05929-115.5541842°144km/h8308m3.2m/s-20.4°C0%0hPa0V00:00:0000:00:0000:00:00
KE7DJD2026-09-04 23:13:1841.05371-115.5603244°144km/h8220m5.1m/s-19.7°C0%0hPa0V00:00:0000:00:0000:00:00
KE7DJD2026-09-04 23:12:5841.04819-115.5666243°137km/h8130m5.0m/s-18.8°C0%0hPa0V00:00:0000:00:0000:00:00
KE7DJD2026-09-04 23:12:3841.04298-115.5725341°135km/h8042m4.9m/s-18.0°C0%0hPa0V00:00:0000:00:0000:00:00
KE7DJD2026-09-04 23:12:1741.03788-115.5784842°137km/h7956m3.4m/s-17.2°C0%0hPa0V00:00:0000:00:0000:00:00
KE7DJD2026-09-04 23:11:5741.03261-115.5848344°128km/h7864m4.3m/s-16.5°C0%0hPa0V00:00:0000:00:0000:00:00
KE7DJD2026-09-04 23:11:3641.02774-115.5907339°131km/h7781m3.5m/s-15.8°C0%0hPa0V00:00:0000:00:0000:00:00
KE7DJD2026-09-04 23:11:1641.02269-115.5965039°117km/h7694m3.8m/s-15.6°C0%0hPa0V00:00:0000:00:0000:00:00
KE7DJD2026-09-04 23:10:5541.01802-115.6018145°115km/h7615m4.3m/s-15.0°C0%0hPa0V00:00:0000:00:0000:00:00
KE7DJD2026-09-04 23:10:3541.01324-115.6074043°124km/h7534m3.0m/s-14.6°C0%0hPa0V00:00:0000:00:0000:00:00
KE7DJD2026-09-04 23:10:1441.00867-115.6125738°115km/h7457m2.7m/s-14.1°C0%0hPa0V00:00:0000:00:0000:00:00
KE7DJD2026-09-04 23:09:5441.00390-115.6175836°113km/h7378m1.9m/s-13.5°C0%0hPa0V00:00:0000:00:0000:00:00
KE7DJD2026-09-04 23:09:3340.99921-115.6224738°104km/h7307m2.3m/s-12.9°C0%0hPa0V00:00:0000:00:0000:00:00
KE7DJD2026-09-04 23:07:4340.97633-115.6464043°99km/h6953m3.5m/s-10.9°C0%0hPa0V00:00:0000:00:0000:00:00
KE7DJD2026-09-04 23:07:2340.97238-115.6510241°100km/h6883m3.6m/s-10.4°C0%0hPa0V00:00:0000:00:0000:00:00
KE7DJD2026-09-04 23:07:0140.96841-115.6555042°97km/h6813m3.0m/s-9.8°C0%0hPa0V00:00:0000:00:0000:00:00
KE7DJD2026-09-04 23:06:4140.96452-115.6598140°104km/h6747m4.0m/s-9.3°C0%0hPa0V00:00:0000:00:0000:00:00
KE7DJD2026-09-04 23:06:2040.96049-115.6642340°97km/h6672m3.5m/s-8.8°C0%0hPa0V00:00:0000:00:0000:00:00
KE7DJD2026-09-04 23:06:0040.95667-115.6684638°108km/h6600m5.1m/s-8.3°C0%0hPa0V00:00:0000:00:0000:00:00
KE7DJD2026-09-04 23:05:4040.95261-115.6732247°95km/h6515m5.9m/s-7.4°C0%0hPa0V00:00:0000:00:0000:00:00
KE7DJD2026-09-04 23:05:2040.94886-115.6776242°93km/h6433m3.4m/s-6.6°C0%0hPa0V00:00:0000:00:0000:00:00
KE7DJD2026-09-04 23:04:5940.94500-115.6822444°102km/h6348m3.3m/s-5.8°C0%0hPa0V00:00:0000:00:0000:00:00
KE7DJD2026-09-04 23:04:3740.94101-115.6867739°91km/h6260m5.0m/s-5.0°C0%0hPa0V00:00:0000:00:0000:00:00
KE7DJD2026-09-04 23:04:1740.93711-115.6912046°100km/h6177m3.6m/s-4.2°C0%0hPa0V00:00:0000:00:0000:00:00
KE7DJD2026-09-04 23:03:5540.93304-115.6955437°100km/h6083m4.8m/s-3.6°C0%0hPa0V00:00:0000:00:0000:00:00


GPX KML Map

© wettersonde.net (DO2JMG) - 2026  -  -